Time;durP1;ratioP1;P1;durP2;ratioP2;P2;SDS_P1;SDS_P2;PMS_P1;PMS_P2;Temp;Humidity;BMP_temperature;BMP_pressure;BME280_temperature;BME280_humidity;BME280_pressure;Samples;Min_cycle;Max_cycle;Signal;HPM_P1;HPM_P2
2022/03/19 00:00:30;;;;;;;60.65;39.15;;;;;;;2.19;100.00;94708.78;2096435;28;20031;-84
2022/03/19 00:01:32;;;;;;;60.78;38.53;;;;;;;1.99;100.00;94713.78;2096030;28;20047;-84
2022/03/19 00:02:33;;;;;;;68.13;40.72;;;;;;;2.13;100.00;94710.09;2103839;28;20029;-84
2022/03/19 00:03:33;;;;;;;62.17;39.50;;;;;;;2.17;100.00;94708.38;2091924;28;20047;-84
2022/03/19 00:04:34;;;;;;;66.75;39.22;;;;;;;2.08;100.00;94710.28;2105905;28;20020;-84
2022/03/19 00:05:36;;;;;;;60.10;38.35;;;;;;;2.08;100.00;94707.66;2095134;28;20016;-84
2022/03/19 00:06:39;;;;;;;59.35;39.28;;;;;;;1.91;100.00;94709.31;2106376;27;20111;-85
2022/03/19 00:07:42;;;;;;;61.95;38.00;;;;;;;2.07;100.00;94704.25;2103685;28;20611;-84
2022/03/19 00:08:43;;;;;;;62.63;39.30;;;;;;;2.07;100.00;94711.41;2097349;28;20028;-85
2022/03/19 00:09:45;;;;;;;64.93;39.70;;;;;;;2.15;100.00;94710.53;2093788;28;20060;-84
2022/03/19 00:10:46;;;;;;;62.35;39.72;;;;;;;1.99;100.00;94708.50;2106126;28;20024;-84
2022/03/19 00:11:48;;;;;;;63.20;38.05;;;;;;;1.90;100.00;94710.41;2095057;28;20040;-85
2022/03/19 00:12:50;;;;;;;63.53;38.72;;;;;;;2.01;100.00;94708.94;2106580;28;20035;-85
2022/03/19 00:13:51;;;;;;;61.53;37.90;;;;;;;2.04;100.00;94709.41;2103957;28;20038;-84
2022/03/19 00:14:52;;;;;;;66.65;39.72;;;;;;;2.00;100.00;94711.91;2096211;28;20119;-84
2022/03/19 00:16:01;;;;;;;64.07;39.58;;;;;;;1.95;100.00;94712.88;2105807;28;20028;-84
2022/03/19 00:17:02;;;;;;;61.07;40.30;;;;;;;2.11;100.00;94714.91;2105966;28;20078;-84
2022/03/19 00:18:04;;;;;;;61.17;38.10;;;;;;;2.12;100.00;94711.97;2101923;28;20822;-83
2022/03/19 00:19:05;;;;;;;60.40;36.95;;;;;;;2.03;100.00;94706.00;2102074;28;20023;-84
2022/03/19 00:20:07;;;;;;;63.15;39.90;;;;;;;1.97;100.00;94713.31;2104631;28;22201;-84
2022/03/19 00:21:08;;;;;;;60.92;39.03;;;;;;;1.87;100.00;94713.69;2097722;28;20032;-85
2022/03/19 00:22:09;;;;;;;65.78;39.22;;;;;;;2.07;100.00;94703.50;2100745;28;20449;-84
2022/03/19 00:23:10;;;;;;;63.92;40.08;;;;;;;2.09;100.00;94719.75;2104975;28;20057;-85
2022/03/19 00:24:11;;;;;;;63.40;39.08;;;;;;;2.04;100.00;94706.75;2105580;28;20020;-84
2022/03/19 00:25:12;;;;;;;59.40;38.75;;;;;;;2.09;100.00;94712.59;2105880;28;20062;-85
2022/03/19 00:26:14;;;;;;;64.93;37.92;;;;;;;2.18;100.00;94715.19;2110000;28;20500;-84
2022/03/19 00:27:15;;;;;;;59.83;38.47;;;;;;;2.16;100.00;94714.75;2107876;28;20019;-85
2022/03/19 00:28:18;;;;;;;61.22;39.00;;;;;;;2.15;100.00;94716.59;2105990;28;20031;-84
2022/03/19 00:29:19;;;;;;;65.65;41.40;;;;;;;2.03;100.00;94711.25;2113062;27;20359;-85
2022/03/19 00:30:20;;;;;;;63.63;38.70;;;;;;;2.15;100.00;94716.59;2114415;28;20460;-84
2022/03/19 00:31:21;;;;;;;60.95;38.70;;;;;;;2.02;100.00;94712.38;2102274;28;20020;-84
2022/03/19 00:32:22;;;;;;;65.15;38.95;;;;;;;1.95;100.00;94712.88;2105476;28;20290;-84
2022/03/19 00:33:23;;;;;;;62.13;40.05;;;;;;;1.81;100.00;94708.94;2096099;28;20056;-85
2022/03/19 00:34:25;;;;;;;63.78;39.60;;;;;;;1.77;100.00;94712.22;2097453;28;20021;-85
2022/03/19 00:35:26;;;;;;;64.18;40.70;;;;;;;1.75;100.00;94713.59;2099506;28;20043;-84
2022/03/19 00:36:28;;;;;;;61.70;39.28;;;;;;;1.88;100.00;94715.22;2104466;28;20032;-84
2022/03/19 00:37:30;;;;;;;64.28;39.83;;;;;;;1.85;100.00;94713.25;2101632;28;20016;-84
2022/03/19 00:38:31;;;;;;;64.70;39.35;;;;;;;1.84;100.00;94716.19;2112031;28;20039;-85
2022/03/19 00:39:32;;;;;;;62.83;39.08;;;;;;;1.87;100.00;94712.91;2117948;27;20622;-84
2022/03/19 00:40:34;;;;;;;62.50;38.17;;;;;;;1.85;100.00;94718.53;2105934;28;20034;-84
2022/03/19 00:41:35;;;;;;;63.80;39.60;;;;;;;1.96;100.00;94722.31;2114242;28;20810;-84
2022/03/19 00:42:36;;;;;;;60.92;37.97;;;;;;;1.82;100.00;94713.13;2112747;28;20012;-84
2022/03/19 00:43:37;;;;;;;63.03;39.00;;;;;;;1.87;100.00;94718.97;2105990;28;20027;-84
2022/03/19 00:44:38;;;;;;;63.75;38.92;;;;;;;1.74;100.00;94714.72;2104652;28;20028;-85
2022/03/19 00:45:39;;;;;;;63.00;39.03;;;;;;;1.56;100.00;94716.69;2098938;28;20074;-82
2022/03/19 00:46:40;;;;;;;65.38;39.90;;;;;;;1.60;100.00;94719.44;2104782;28;20085;-83
2022/03/19 00:47:42;;;;;;;60.88;39.97;;;;;;;1.60;100.00;94714.19;2105562;28;20042;-82
2022/03/19 00:48:43;;;;;;;66.13;39.60;;;;;;;1.59;100.00;94717.91;2097173;28;20086;-82
2022/03/19 00:49:44;;;;;;;64.25;39.88;;;;;;;1.45;100.00;94716.28;2102587;28;20016;-82
2022/03/19 00:50:45;;;;;;;65.38;40.55;;;;;;;1.66;100.00;94715.53;2105705;28;20488;-82
2022/03/19 00:51:46;;;;;;;65.47;39.20;;;;;;;1.71;100.00;94708.22;2100842;28;20056;-82
2022/03/19 00:52:47;;;;;;;60.58;40.10;;;;;;;1.61;100.00;94716.47;2113869;28;20413;-83
2022/03/19 00:53:48;;;;;;;65.68;41.13;;;;;;;1.50;100.00;94712.69;2110196;28;20049;-83
2022/03/19 00:54:49;;;;;;;63.03;40.35;;;;;;;1.42;100.00;94713.50;2115874;27;20094;-82
2022/03/19 00:55:50;;;;;;;63.25;39.38;;;;;;;1.42;100.00;94716.91;2111793;28;20015;-81
2022/03/19 00:56:52;;;;;;;63.47;39.70;;;;;;;1.31;100.00;94715.72;2103456;28;20024;-82
2022/03/19 00:57:53;;;;;;;64.85;39.80;;;;;;;1.36;100.00;94722.66;2114987;27;20540;-82
2022/03/19 00:58:55;;;;;;;59.55;38.35;;;;;;;1.29;100.00;94728.44;2115248;27;20050;-82
2022/03/19 00:59:56;;;;;;;61.88;38.83;;;;;;;1.32;100.00;94717.28;2115563;27;20015;-81
2022/03/19 01:00:56;;;;;;;64.55;40.65;;;;;;;1.28;100.00;94713.72;2100677;28;20020;-82
2022/03/19 01:01:58;;;;;;;66.20;40.60;;;;;;;1.19;100.00;94724.28;2104882;28;20020;-81
2022/03/19 01:02:59;;;;;;;63.70;39.45;;;;;;;1.26;100.00;94718.53;2110317;28;20076;-82
2022/03/19 01:04:00;;;;;;;62.38;39.63;;;;;;;1.31;100.00;94709.66;2107236;28;20024;-82
2022/03/19 01:05:01;;;;;;;62.83;40.00;;;;;;;1.30;100.00;94711.53;2105238;28;20559;-82
2022/03/19 01:06:02;;;;;;;62.55;40.83;;;;;;;1.30;100.00;94708.13;2097128;28;20024;-81
2022/03/19 01:07:03;;;;;;;59.75;38.65;;;;;;;1.23;100.00;94711.28;2101255;28;20706;-81
2022/03/19 01:08:04;;;;;;;64.38;39.97;;;;;;;1.23;100.00;94712.03;2105263;28;20028;-82
2022/03/19 01:09:05;;;;;;;63.08;40.30;;;;;;;1.28;100.00;94713.72;2101328;28;20024;-81
2022/03/19 01:10:06;;;;;;;63.70;40.55;;;;;;;1.20;100.00;94714.53;2100637;28;20455;-81
2022/03/19 01:11:08;;;;;;;60.90;39.10;;;;;;;1.30;100.00;94713.41;2096448;28;20035;-82
2022/03/19 01:12:09;;;;;;;62.28;38.75;;;;;;;1.18;100.00;94704.28;2096047;28;20024;-82
2022/03/19 01:13:10;;;;;;;65.13;39.55;;;;;;;1.09;100.00;94705.44;2105437;28;20511;-81
2022/03/19 01:14:11;;;;;;;62.10;40.17;;;;;;;1.04;100.00;94702.97;2107069;28;20016;-82
2022/03/19 01:15:13;;;;;;;61.47;39.75;;;;;;;1.02;100.00;94702.53;2097144;28;20105;-81
2022/03/19 01:16:14;;;;;;;62.15;38.90;;;;;;;0.94;100.00;94707.50;2103577;28;20020;-82
2022/03/19 01:17:16;;;;;;;64.15;40.22;;;;;;;0.92;100.00;94709.69;2115873;27;20023;-82
2022/03/19 01:18:17;;;;;;;64.93;40.95;;;;;;;0.91;100.00;94707.34;2113900;28;20080;-82
2022/03/19 01:19:52;;;;;;;60.50;40.42;;;;;;;0.94;100.00;94704.09;2111873;28;20027;-81
2022/03/19 01:20:39;;;;;;;64.20;39.78;;;;;;;0.95;100.00;94703.00;2102631;28;20449;-81
2022/03/19 01:21:41;;;;;;;62.15;39.40;;;;;;;0.92;100.00;94701.00;2106563;28;20024;-81
2022/03/19 01:22:44;;;;;;;61.22;39.47;;;;;;;0.92;100.00;94699.16;2113641;27;20548;-82
2022/03/19 01:23:45;;;;;;;60.00;39.33;;;;;;;1.06;100.00;94698.19;2102495;28;20123;-81
2022/03/19 01:24:46;;;;;;;60.58;39.72;;;;;;;1.04;100.00;94710.88;2103332;28;20450;-82
2022/03/19 01:25:47;;;;;;;63.47;40.03;;;;;;;1.25;100.00;94712.50;2103363;28;20015;-81
2022/03/19 01:26:48;;;;;;;63.22;39.58;;;;;;;1.16;100.00;94705.72;2095297;28;20023;-81
2022/03/19 01:27:50;;;;;;;64.63;40.80;;;;;;;1.09;100.00;94708.06;2105334;28;20611;-81
2022/03/19 01:28:51;;;;;;;67.18;40.25;;;;;;;1.02;100.00;94708.56;2113715;28;20054;-81
2022/03/19 01:29:52;;;;;;;64.90;40.33;;;;;;;1.15;100.00;94699.69;2112450;28;20012;-81
2022/03/19 01:30:53;;;;;;;64.25;40.58;;;;;;;1.30;100.00;94693.09;2107771;28;20434;-81
2022/03/19 01:31:54;;;;;;;61.17;40.42;;;;;;;1.16;100.00;94698.59;2113705;28;20047;-82
2022/03/19 01:32:55;;;;;;;62.47;40.85;;;;;;;1.22;100.00;94699.94;2112748;28;20020;-81
2022/03/19 01:33:56;;;;;;;64.18;39.28;;;;;;;1.25;100.00;94693.28;2111695;28;20534;-82
2022/03/19 01:34:57;;;;;;;61.00;40.38;;;;;;;1.18;100.00;94711.44;2101621;28;20105;-82
2022/03/19 01:35:58;;;;;;;63.17;40.05;;;;;;;1.06;100.00;94701.59;2104632;28;20020;-81
2022/03/19 01:36:59;;;;;;;64.47;39.78;;;;;;;0.92;100.00;94706.25;2104883;28;20136;-82
2022/03/19 01:38:04;;;;;;;64.50;40.63;;;;;;;0.94;100.00;94696.19;2105048;28;20054;-81
2022/03/19 01:39:05;;;;;;;64.50;40.72;;;;;;;1.20;100.00;94704.00;2100754;27;20506;-81
2022/03/19 01:40:09;;;;;;;61.92;39.50;;;;;;;1.12;100.00;94699.53;2105346;28;20031;-82
2022/03/19 01:41:10;;;;;;;64.18;39.65;;;;;;;1.13;100.00;94701.06;2101817;27;20032;-81
2022/03/19 01:42:11;;;;;;;64.93;39.92;;;;;;;1.40;100.00;94694.59;2111692;27;20019;-81
2022/03/19 01:43:12;;;;;;;64.13;38.95;;;;;;;1.21;100.00;94695.00;2104498;28;20047;-81
2022/03/19 01:44:22;;;;;;;64.03;39.72;;;;;;;1.11;100.00;94701.41;2096994;28;20107;-82
2022/03/19 01:45:24;;;;;;;62.70;39.38;;;;;;;1.38;100.00;94688.88;2099019;28;20135;-81
2022/03/19 01:46:26;;;;;;;57.80;37.90;;;;;;;1.27;100.00;94699.00;2105372;28;20043;-81
2022/03/19 01:47:29;;;;;;;64.45;40.90;;;;;;;1.29;100.00;94702.09;2100781;28;20016;-81
2022/03/19 01:48:30;;;;;;;60.35;38.63;;;;;;;1.24;100.00;94694.38;2097190;28;20024;-81
2022/03/19 01:49:31;;;;;;;61.65;38.42;;;;;;;1.26;100.00;94697.44;2096862;28;20032;-82
2022/03/19 01:50:32;;;;;;;65.20;39.97;;;;;;;1.21;100.00;94698.41;2096920;28;20017;-82
2022/03/19 01:51:35;;;;;;;63.92;39.30;;;;;;;1.37;100.00;94698.66;2103089;28;20032;-81
2022/03/19 01:52:37;;;;;;;61.17;39.22;;;;;;;1.20;100.00;94688.19;2103197;28;20433;-82
2022/03/19 01:53:38;;;;;;;67.75;41.33;;;;;;;1.07;100.00;94694.44;2095818;28;20035;-81
2022/03/19 01:54:44;;;;;;;64.05;41.88;;;;;;;1.11;100.00;94698.00;2097108;28;20056;-82
2022/03/19 01:55:45;;;;;;;70.35;41.80;;;;;;;1.06;100.00;94691.03;2097538;28;20020;-81
2022/03/19 01:56:46;;;;;;;67.13;41.40;;;;;;;1.02;100.00;94692.75;2096889;28;20131;-81
2022/03/19 01:57:48;;;;;;;64.43;41.65;;;;;;;1.03;100.00;94696.16;2105199;28;20039;-82
2022/03/19 01:58:50;;;;;;;63.05;40.47;;;;;;;1.03;100.00;94696.94;2109453;28;20145;-82
2022/03/19 01:59:53;;;;;;;65.28;41.65;;;;;;;1.03;100.00;94699.56;2104056;28;20020;-82
2022/03/19 02:00:55;;;;;;;67.70;40.88;;;;;;;0.96;100.00;94694.78;2106014;28;20031;-82
2022/03/19 02:01:56;;;;;;;70.53;41.90;;;;;;;0.91;100.00;94692.31;2110976;28;20020;-81
2022/03/19 02:02:58;;;;;;;70.00;41.22;;;;;;;0.99;100.00;94688.13;2112453;28;20053;-81
2022/03/19 02:03:59;;;;;;;68.05;42.58;;;;;;;1.18;100.00;94683.22;2111328;28;20353;-81
2022/03/19 02:05:03;;;;;;;66.90;41.67;;;;;;;1.06;100.00;94687.66;2101337;28;20078;-82
2022/03/19 02:06:04;;;;;;;68.53;43.25;;;;;;;1.13;100.00;94690.53;2101472;28;20062;-82
2022/03/19 02:07:07;;;;;;;68.22;42.25;;;;;;;1.05;100.00;94684.22;2109359;28;20071;-82
2022/03/19 02:08:08;;;;;;;71.03;42.47;;;;;;;0.91;100.00;94692.31;2109489;28;20448;-82
2022/03/19 02:09:09;;;;;;;73.70;43.70;;;;;;;0.88;100.00;94686.91;2100770;28;20032;-81
2022/03/19 02:12:08;;;;;;;;;;;;;;;0.93;100.00;94684.91;2125563;27;20639;-85
2022/03/19 02:13:09;;;;;;;69.97;38.25;;;;;;;0.93;100.00;94681.50;2128806;27;19919;-84
2022/03/19 02:14:10;;;;;;;66.07;40.42;;;;;;;1.00;100.00;94681.75;2106176;28;20094;-84
2022/03/19 02:15:13;;;;;;;71.72;42.75;;;;;;;0.86;100.00;94687.22;2098983;28;20020;-84
2022/03/19 02:16:14;;;;;;;72.57;45.22;;;;;;;0.75;100.00;94678.16;2100486;28;20104;-84
2022/03/19 02:17:15;;;;;;;72.38;43.35;;;;;;;0.78;100.00;94682.78;2100183;28;20024;-84
2022/03/19 02:18:16;;;;;;;67.82;42.95;;;;;;;0.79;100.00;94679.06;2112471;28;20053;-84
2022/03/19 02:19:19;;;;;;;74.03;45.60;;;;;;;0.86;100.00;94676.72;2119119;28;20020;-84
2022/03/19 02:20:21;;;;;;;72.95;44.38;;;;;;;0.94;100.00;94683.81;2110101;28;20738;-84
2022/03/19 02:21:22;;;;;;;71.07;42.47;;;;;;;0.77;100.00;94675.97;2095455;28;20027;-83
2022/03/19 02:22:26;;;;;;;76.72;45.97;;;;;;;0.69;100.00;94684.66;2106075;28;20046;-84
2022/03/19 02:26:07;;;;;;;70.03;43.00;;;;;;;0.82;100.00;94669.75;2126543;27;20471;-83
2022/03/19 02:27:08;;;;;;;72.25;44.35;;;;;;;0.68;100.00;94672.59;2114494;28;20024;-84
2022/03/19 02:28:09;;;;;;;75.75;44.97;;;;;;;0.62;100.00;94671.22;2099161;28;20074;-83
2022/03/19 02:29:11;;;;;;;73.43;44.55;;;;;;;0.79;100.00;94665.91;2098250;28;20063;-84
2022/03/19 02:30:13;;;;;;;75.15;44.75;;;;;;;0.73;100.00;94665.28;2107557;28;20384;-85
2022/03/19 02:31:14;;;;;;;74.43;43.78;;;;;;;0.69;100.00;94664.38;2109447;28;20035;-84
2022/03/19 02:32:15;;;;;;;70.88;45.42;;;;;;;0.74;100.00;94666.06;2098463;28;20768;-84
2022/03/19 02:33:16;;;;;;;77.20;45.63;;;;;;;0.82;100.00;94669.75;2101291;28;20053;-84
2022/03/19 02:34:17;;;;;;;74.10;44.60;;;;;;;0.89;100.00;94665.56;2097637;28;20848;-83
2022/03/19 02:35:19;;;;;;;76.22;44.70;;;;;;;0.84;100.00;94671.00;2097979;28;20021;-84
2022/03/19 02:36:20;;;;;;;71.05;45.70;;;;;;;0.75;100.00;94671.03;2101459;28;20024;-84
2022/03/19 02:37:22;;;;;;;72.95;45.72;;;;;;;0.81;100.00;94668.22;2099912;28;20031;-84
2022/03/19 02:38:23;;;;;;;73.65;46.15;;;;;;;0.68;100.00;94662.06;2099487;28;20025;-84
2022/03/19 02:39:31;;;;;;;71.50;45.22;;;;;;;0.61;100.00;94669.66;2104101;28;20484;-84
2022/03/19 02:40:32;;;;;;;73.93;46.10;;;;;;;0.68;100.00;94665.47;2104194;28;20103;-83
2022/03/19 02:41:33;;;;;;;74.13;47.20;;;;;;;0.69;100.00;94663.59;2104359;28;20122;-83
2022/03/19 02:42:34;;;;;;;76.05;45.65;;;;;;;0.77;100.00;94664.66;2108318;28;20023;-83
2022/03/19 02:43:34;;;;;;;75.43;45.30;;;;;;;0.84;100.00;94664.97;2110017;28;20088;-83
2022/03/19 02:44:36;;;;;;;73.10;45.35;;;;;;;0.88;100.00;94669.28;2116596;28;20419;-83
2022/03/19 02:45:37;;;;;;;73.68;46.92;;;;;;;1.04;100.00;94660.84;2112246;28;20779;-83
2022/03/19 02:46:44;;;;;;;76.35;46.03;;;;;;;0.88;100.00;94668.47;2106533;28;20020;-83
2022/03/19 02:47:57;;;;;;;80.15;45.53;;;;;;;0.76;100.00;94669.16;2114120;27;20512;-83
2022/03/19 02:48:58;;;;;;;77.38;46.63;;;;;;;0.76;100.00;94674.44;2126854;27;20715;-83
2022/03/19 02:50:00;;;;;;;82.57;48.38;;;;;;;0.70;100.00;94668.56;2115105;28;20034;-82
2022/03/19 02:51:01;;;;;;;76.57;46.80;;;;;;;0.60;100.00;94668.88;2107749;28;20106;-83
2022/03/19 02:52:02;;;;;;;79.55;48.47;;;;;;;0.55;100.00;94670.94;2098781;28;20017;-84
2022/03/19 02:53:06;;;;;;;78.10;47.85;;;;;;;0.48;100.00;94668.75;2116428;27;20376;-83
2022/03/19 02:54:10;;;;;;;81.68;49.25;;;;;;;0.40;100.00;94670.34;2115687;28;20019;-82
2022/03/19 02:55:11;;;;;;;75.15;46.75;;;;;;;0.39;100.00;94671.41;2108831;27;20135;-82
2022/03/19 02:56:12;;;;;;;85.85;51.35;;;;;;;0.47;100.00;94670.63;2111149;28;20062;-83
2022/03/19 02:57:12;;;;;;;79.07;48.85;;;;;;;0.52;100.00;94672.31;2093216;28;20025;-83
2022/03/19 02:58:13;;;;;;;81.60;49.33;;;;;;;0.45;100.00;94667.53;2100674;28;20044;-83
2022/03/19 02:59:20;;;;;;;79.93;48.25;;;;;;;0.39;100.00;94670.63;2095842;28;20016;-83
2022/03/19 03:00:23;;;;;;;83.03;49.10;;;;;;;0.70;100.00;94673.84;2102846;28;20055;-83
2022/03/19 03:01:24;;;;;;;77.95;47.80;;;;;;;0.65;100.00;94668.72;2095524;28;20013;-83
2022/03/19 03:02:25;;;;;;;83.72;49.60;;;;;;;0.55;100.00;94679.59;2103565;28;20024;-84
2022/03/19 03:03:26;;;;;;;78.97;48.25;;;;;;;0.46;100.00;94679.59;2105831;28;20516;-83
2022/03/19 03:04:28;;;;;;;81.90;49.85;;;;;;;0.30;100.00;94670.66;2109983;28;20019;-83
2022/03/19 03:05:29;;;;;;;82.82;48.50;;;;;;;0.33;100.00;94674.53;2111578;28;20016;-83
2022/03/19 03:06:40;;;;;;;82.47;49.42;;;;;;;0.48;100.00;94669.56;2111466;28;20031;-83
2022/03/19 03:07:41;;;;;;;86.03;49.88;;;;;;;0.68;100.00;94675.22;2106493;28;20111;-83
2022/03/19 03:08:42;;;;;;;82.80;48.63;;;;;;;0.57;100.00;94666.09;2095512;28;20016;-83
2022/03/19 03:09:44;;;;;;;84.13;48.60;;;;;;;0.58;100.00;94676.34;2108820;28;20043;-83
2022/03/19 03:10:45;;;;;;;84.97;50.10;;;;;;;0.68;100.00;94665.47;2090756;28;20047;-83
2022/03/19 03:11:46;;;;;;;86.75;50.03;;;;;;;0.86;100.00;94670.66;2104452;28;20583;-83
2022/03/19 03:12:47;;;;;;;76.90;48.20;;;;;;;0.85;100.00;94663.88;2103744;28;20024;-83
2022/03/19 03:13:48;;;;;;;85.47;48.60;;;;;;;0.70;100.00;94662.50;2111617;28;20153;-83
2022/03/19 03:14:49;;;;;;;78.82;48.10;;;;;;;0.56;100.00;94664.56;2103692;28;20020;-83
2022/03/19 03:15:50;;;;;;;86.55;49.55;;;;;;;0.47;100.00;94672.47;2101297;28;20032;-82
2022/03/19 03:16:53;;;;;;;75.57;47.15;;;;;;;0.54;100.00;94664.91;2103244;28;20016;-82
2022/03/19 03:17:54;;;;;;;79.85;48.50;;;;;;;0.47;100.00;94667.22;2103735;28;20035;-83
2022/03/19 03:18:57;;;;;;;82.47;48.05;;;;;;;0.48;100.00;94666.94;2099483;28;20102;-83
2022/03/19 03:19:58;;;;;;;78.55;47.17;;;;;;;0.47;100.00;94669.84;2094837;28;20024;-83
2022/03/19 03:21:00;;;;;;;87.55;50.45;;;;;;;0.49;100.00;94673.72;2095175;28;20017;-83
2022/03/19 03:22:01;;;;;;;81.10;48.30;;;;;;;0.44;100.00;94666.00;2102191;28;20008;-83
2022/03/19 03:23:03;;;;;;;84.97;49.38;;;;;;;0.38;100.00;94669.88;2091567;28;20465;-83
2022/03/19 03:24:05;;;;;;;82.03;46.67;;;;;;;0.34;100.00;94671.56;2095352;28;20071;-83
2022/03/19 03:25:07;;;;;;;89.07;49.00;;;;;;;0.28;100.00;94667.56;2087808;28;20100;-83
2022/03/19 03:26:08;;;;;;;84.13;48.85;;;;;;;0.08;100.00;94670.84;2091201;28;20024;-83
2022/03/19 03:27:08;;;;;;;80.72;47.30;;;;;;;0.04;100.00;94672.53;2089362;28;20504;-84
2022/03/19 03:28:09;;;;;;;76.30;46.15;;;;;;;0.30;100.00;94667.25;2097854;28;20016;-83
2022/03/19 03:29:11;;;;;;;83.22;48.67;;;;;;;0.32;100.00;94659.84;2089880;28;20067;-83
2022/03/19 03:30:12;;;;;;;83.05;49.90;;;;;;;0.18;100.00;94673.16;2098375;28;20029;-83
2022/03/19 03:31:13;;;;;;;86.60;49.28;;;;;;;0.10;100.00;94671.31;2103179;28;20484;-84
2022/03/19 03:32:14;;;;;;;85.32;49.78;;;;;;;-0.01;100.00;94668.97;2099220;28;20126;-83
2022/03/19 03:33:15;;;;;;;85.35;49.38;;;;;;;-0.05;100.00;94670.69;2092672;28;20021;-82
2022/03/19 03:34:16;;;;;;;80.18;49.38;;;;;;;0.30;100.00;94667.25;2091494;28;20072;-83
2022/03/19 03:35:17;;;;;;;83.53;50.42;;;;;;;0.16;100.00;94675.31;2099906;28;20067;-83
2022/03/19 03:36:18;;;;;;;85.47;50.35;;;;;;;0.06;100.00;94663.25;2105249;28;20044;-83
2022/03/19 03:37:19;;;;;;;81.88;49.30;;;;;;;-0.05;100.00;94667.28;2106178;28;20028;-83
2022/03/19 03:38:20;;;;;;;78.88;49.58;;;;;;;-0.10;100.00;94670.06;2104008;28;20020;-83
2022/03/19 03:39:21;;;;;;;82.68;49.47;;;;;;;-0.04;100.00;94663.59;2089608;28;20475;-83
2022/03/19 03:40:22;;;;;;;81.38;51.42;;;;;;;0.06;100.00;94663.25;2083552;28;20116;-83
2022/03/19 03:41:23;;;;;;;81.45;49.45;;;;;;;0.00;100.00;94672.41;2087729;28;20583;-83
2022/03/19 03:42:24;;;;;;;87.28;50.38;;;;;;;0.09;100.00;94673.16;2089566;28;20111;-83
2022/03/19 03:43:25;;;;;;;79.00;49.33;;;;;;;0.20;100.00;94663.09;2085359;28;20040;-83
2022/03/19 03:44:26;;;;;;;86.03;51.60;;;;;;;0.15;100.00;94671.91;2091520;28;20128;-84
2022/03/19 03:45:31;;;;;;;87.00;50.35;;;;;;;0.31;100.00;94671.41;2098473;28;20036;-83
2022/03/19 03:46:32;;;;;;;86.15;51.33;;;;;;;0.23;100.00;94662.47;2105692;28;20030;-84
2022/03/19 03:47:32;;;;;;;82.30;49.45;;;;;;;0.28;100.00;94664.19;2097610;28;20032;-84
2022/03/19 03:48:35;;;;;;;83.43;49.20;;;;;;;0.39;100.00;94666.16;2097080;28;20036;-84
2022/03/19 03:49:36;;;;;;;83.80;50.20;;;;;;;0.31;100.00;94669.59;2106187;28;20028;-84
2022/03/19 03:50:37;;;;;;;86.05;50.50;;;;;;;0.38;100.00;94661.22;2093399;28;20043;-83
2022/03/19 03:51:38;;;;;;;79.28;49.22;;;;;;;0.35;100.00;94665.25;2089824;28;20017;-84
2022/03/19 03:52:40;;;;;;;78.30;49.10;;;;;;;0.28;100.00;94664.19;2085805;28;20024;-84
2022/03/19 03:53:45;;;;;;;86.20;49.10;;;;;;;0.34;100.00;94666.31;2100097;28;20480;-84
2022/03/19 03:54:46;;;;;;;80.53;48.70;;;;;;;0.31;100.00;94661.69;2089209;28;20041;-83
2022/03/19 03:55:47;;;;;;;80.55;46.45;;;;;;;0.25;100.00;94670.81;2100349;28;20082;-84
2022/03/19 03:56:48;;;;;;;81.50;48.00;;;;;;;0.20;100.00;94663.09;2091310;28;20025;-84
2022/03/19 03:57:49;;;;;;;89.63;51.85;;;;;;;0.20;100.00;94663.88;2089283;28;20609;-84
2022/03/19 03:58:50;;;;;;;84.97;50.40;;;;;;;0.12;100.00;94672.53;2089946;28;20027;-83
2022/03/19 03:59:52;;;;;;;89.63;51.00;;;;;;;0.08;100.00;94665.56;2095679;28;20140;-83
2022/03/19 04:00:55;;;;;;;89.30;51.92;;;;;;;0.02;100.00;94670.22;2085952;28;20017;-84
2022/03/19 04:01:56;;;;;;;95.28;52.55;;;;;;;0.04;100.00;94672.53;2085232;28;20049;-83
2022/03/19 04:02:57;;;;;;;86.60;50.80;;;;;;;0.06;100.00;94671.16;2101817;28;20086;-83
2022/03/19 04:03:58;;;;;;;85.50;50.65;;;;;;;0.01;100.00;94667.91;2096375;28;20024;-83
2022/03/19 04:04:59;;;;;;;97.32;53.65;;;;;;;0.06;100.00;94668.53;2097915;28;20032;-83
2022/03/19 04:06:00;;;;;;;87.45;52.08;;;;;;;-0.05;100.00;94660.16;2089580;28;20111;-83
2022/03/19 04:07:01;;;;;;;86.65;51.20;;;;;;;0.05;100.00;94658.34;2097706;28;20508;-83
2022/03/19 04:08:03;;;;;;;84.57;50.70;;;;;;;0.08;100.00;94662.94;2089543;28;20437;-84
2022/03/19 04:09:04;;;;;;;86.88;52.25;;;;;;;0.03;100.00;94668.38;2097959;28;20496;-84
2022/03/19 04:10:06;;;;;;;96.03;51.95;;;;;;;0.04;100.00;94662.78;2101931;28;20109;-82
2022/03/19 04:11:07;;;;;;;88.70;51.80;;;;;;;0.19;100.00;94662.31;2097564;28;20477;-82
2022/03/19 04:12:10;;;;;;;87.97;52.38;;;;;;;0.10;100.00;94668.69;2097216;28;20036;-83
2022/03/19 04:13:12;;;;;;;91.82;53.40;;;;;;;0.04;100.00;94664.66;2090188;28;20021;-83
2022/03/19 04:14:13;;;;;;;93.95;53.45;;;;;;;0.15;100.00;94664.03;2089340;28;20028;-83
2022/03/19 04:15:14;;;;;;;92.50;51.47;;;;;;;0.29;100.00;94657.81;2091136;28;20059;-83
2022/03/19 04:16:15;;;;;;;98.60;54.30;;;;;;;0.19;100.00;94661.56;2096115;28;20021;-83
2022/03/19 04:17:15;;;;;;;87.00;52.25;;;;;;;0.12;100.00;94666.50;2092210;28;20107;-83
2022/03/19 04:18:17;;;;;;;91.90;53.20;;;;;;;0.22;100.00;94656.44;2097437;28;20496;-83
2022/03/19 04:19:18;;;;;;;89.90;51.90;;;;;;;0.19;100.00;94661.56;2092206;28;20465;-83
2022/03/19 04:20:19;;;;;;;89.18;52.55;;;;;;;0.19;100.00;94656.31;2111455;28;20015;-82
2022/03/19 04:21:21;;;;;;;92.07;54.38;;;;;;;0.25;100.00;94652.41;2099586;28;20024;-84
2022/03/19 04:22:22;;;;;;;90.80;52.95;;;;;;;0.37;100.00;94663.06;2095642;28;20758;-83
2022/03/19 04:23:23;;;;;;;94.00;54.72;;;;;;;0.21;100.00;94656.75;2097771;28;20027;-84
2022/03/19 04:24:25;;;;;;;97.65;56.30;;;;;;;0.21;100.00;94659.38;2086835;28;20025;-84
2022/03/19 04:25:26;;;;;;;92.53;52.45;;;;;;;0.17;100.00;94659.22;2089712;28;20424;-84
2022/03/19 04:26:28;;;;;;;91.18;52.83;;;;;;;0.09;100.00;94656.59;2103964;28;20028;-84
2022/03/19 04:27:29;;;;;;;87.60;51.65;;;;;;;0.23;100.00;94659.84;2104130;28;20031;-84
2022/03/19 04:28:29;;;;;;;95.00;54.45;;;;;;;0.09;100.00;94654.78;2105907;28;20061;-84
2022/03/19 04:29:30;;;;;;;91.13;54.78;;;;;;;-0.03;100.00;94665.91;2105722;28;20020;-83
2022/03/19 04:30:31;;;;;;;91.85;53.40;;;;;;;-0.04;100.00;94659.09;2103903;28;20056;-84
2022/03/19 04:31:32;;;;;;;93.50;54.38;;;;;;;0.18;100.00;94652.13;2085361;28;20025;-84
2022/03/19 04:32:58;;;;;;;94.47;53.78;;;;;;;0.14;100.00;94656.47;2095206;28;20017;-84
2022/03/19 04:33:59;;;;;;;98.70;53.35;;;;;;;0.10;100.00;94658.94;2091779;28;20069;-84
2022/03/19 04:36:29;;;;;;;90.88;54.10;;;;;;;0.13;100.00;94654.91;2096712;28;20021;-84
2022/03/19 04:36:29;;;;;;;97.00;52.88;;;;;;;0.13;100.00;94657.53;2114286;28;20024;-83
2022/03/19 04:37:30;;;;;;;96.80;52.78;;;;;;;0.05;100.00;94661.72;2100044;28;20111;-84
2022/03/19 04:38:31;;;;;;;98.50;56.00;;;;;;;-0.02;100.00;94662.19;2090105;28;20017;-83
2022/03/19 04:39:32;;;;;;;94.50;54.67;;;;;;;-0.03;100.00;94660.66;2096454;28;20051;-83
2022/03/19 04:40:35;;;;;;;97.25;54.47;;;;;;;0.08;100.00;94665.56;2099471;28;20062;-83
2022/03/19 04:41:37;;;;;;;99.35;55.67;;;;;;;0.12;100.00;94667.28;2097157;28;20016;-84
2022/03/19 04:42:38;;;;;;;99.65;55.05;;;;;;;0.12;100.00;94662.00;2089264;28;20144;-84
2022/03/19 04:43:39;;;;;;;96.53;52.30;;;;;;;0.29;100.00;94655.97;2095527;28;20111;-84
2022/03/19 04:44:40;;;;;;;95.78;55.72;;;;;;;0.15;100.00;94658.00;2103811;28;20016;-83
2022/03/19 04:45:42;;;;;;;96.25;55.22;;;;;;;0.11;100.00;94657.06;2097411;28;20480;-83
2022/03/19 04:46:43;;;;;;;100.50;54.30;;;;;;;0.20;100.00;94655.22;2093074;28;20454;-84
2022/03/19 04:47:44;;;;;;;95.75;53.65;;;;;;;0.07;100.00;94650.91;2084947;28;20033;-83
2022/03/19 04:48:45;;;;;;;98.95;56.22;;;;;;;0.03;100.00;94660.47;2083528;28;20135;-84